createdAt,value
2018-07-23T00:00:47.447Z,99.06
2018-07-23T00:02:40.241Z,99.74
2018-07-23T00:03:40.168Z,97.33
2018-07-23T00:05:32.954Z,98.19
2018-07-23T00:06:32.873Z,98.39
2018-07-23T00:08:25.659Z,98.49
2018-07-23T00:09:25.592Z,98.29
2018-07-23T00:11:18.388Z,97.38
2018-07-23T00:12:18.317Z,97.04
2018-07-23T00:14:11.094Z,97.96
2018-07-23T00:15:11.034Z,97.28
2018-07-23T00:17:03.860Z,98.54
2018-07-23T00:18:03.750Z,97.67
2018-07-23T00:19:56.527Z,97.42
2018-07-23T00:20:56.460Z,97.62
2018-07-23T00:22:49.265Z,97.42
2018-07-23T00:23:49.187Z,98.19
2018-07-23T00:25:41.982Z,97.47
2018-07-23T00:26:41.904Z,98.82
2018-07-23T00:28:34.729Z,97.47
2018-07-23T00:29:34.613Z,97.76
2018-07-23T00:31:27.410Z,97.47
2018-07-23T00:32:27.334Z,97.19
2018-07-23T00:34:20.129Z,97.09
2018-07-23T00:35:20.075Z,97.67
2018-07-23T00:37:12.847Z,97.19
2018-07-23T00:38:12.798Z,97.67
2018-07-23T00:40:05.580Z,97.47
2018-07-23T00:41:05.516Z,97.09
2018-07-23T00:42:58.300Z,97.76
2018-07-23T00:43:58.224Z,97.28
2018-07-23T00:45:51.009Z,96.89
2018-07-23T00:46:50.932Z,97.28
2018-07-23T00:48:43.743Z,97.57
2018-07-23T00:49:43.664Z,97.33
2018-07-23T00:51:36.458Z,95.84
2018-07-23T00:52:36.384Z,96.27
2018-07-23T00:54:29.160Z,96.32
2018-07-23T00:55:29.102Z,97.09
2018-07-23T00:57:21.884Z,97.28
2018-07-23T00:58:21.811Z,97.09
2018-07-23T01:00:14.597Z,97.28
2018-07-23T01:01:14.536Z,97.38
2018-07-23T01:03:07.309Z,97.24
2018-07-23T01:04:07.248Z,97.14
2018-07-23T01:06:00.031Z,96.27
2018-07-23T01:06:59.958Z,96.08
2018-07-23T01:08:52.747Z,96.27
2018-07-23T01:09:52.687Z,95.02
2018-07-23T01:11:45.476Z,96.27
2018-07-23T01:12:45.401Z,95.31
2018-07-23T01:14:38.184Z,96.08
2018-07-23T01:15:38.120Z,96.32
2018-07-23T01:17:30.907Z,94.68
2018-07-23T01:18:30.846Z,94.88
2018-07-23T01:20:23.618Z,93.53
2018-07-23T01:21:23.564Z,94.01
2018-07-23T01:23:16.366Z,94.30
2018-07-23T01:24:16.274Z,94.11
2018-07-23T01:26:09.085Z,94.11
2018-07-23T01:27:09.014Z,94.30
2018-07-23T01:29:01.812Z,93.24
2018-07-23T01:30:01.731Z,93.19
2018-07-23T01:31:54.527Z,94.15
2018-07-23T01:32:54.451Z,94.54
2018-07-23T01:34:47.217Z,93.96
2018-07-23T01:35:47.155Z,95.31
2018-07-23T01:37:39.994Z,94.30
2018-07-23T01:38:39.871Z,95.50
2018-07-23T01:40:32.656Z,95.55
2018-07-23T01:41:32.595Z,96.37
2018-07-23T01:43:25.411Z,95.21
2018-07-23T01:44:25.316Z,95.21
2018-07-23T01:46:18.106Z,95.70
2018-07-23T01:47:18.032Z,95.31
2018-07-23T01:49:10.851Z,94.06
2018-07-23T01:50:10.831Z,95.02
2018-07-23T01:52:03.557Z,95.60
2018-07-23T01:53:03.476Z,93.96
2018-07-23T01:54:56.264Z,95.60
2018-07-23T01:55:56.189Z,95.07
2018-07-23T01:57:48.982Z,93.91
2018-07-23T01:58:48.900Z,93.34
2018-07-23T02:00:41.683Z,93.34
2018-07-23T02:01:41.625Z,93.73
2018-07-23T02:03:34.431Z,93.24
2018-07-23T02:04:34.357Z,93.34
2018-07-23T02:06:27.180Z,94.68
2018-07-23T02:07:27.107Z,94.30
2018-07-23T02:09:19.870Z,94.21
2018-07-23T02:10:19.803Z,94.21
2018-07-23T02:12:12.614Z,93.05
2018-07-23T02:13:12.524Z,93.34
2018-07-23T02:15:05.310Z,92.86
2018-07-23T02:16:05.236Z,91.80
2018-07-23T02:17:58.017Z,93.15
2018-07-23T02:18:57.946Z,93.15
2018-07-23T02:20:50.747Z,93.53
2018-07-23T02:21:50.695Z,95.31
2018-07-23T02:23:43.476Z,93.19
2018-07-23T02:24:43.401Z,92.43
2018-07-23T02:26:36.223Z,93.48
2018-07-23T02:27:36.146Z,93.29
2018-07-23T02:29:28.926Z,93.38
2018-07-23T02:30:28.861Z,94.25
2018-07-23T02:32:21.655Z,94.06
2018-07-23T02:33:21.579Z,94.92
2018-07-23T02:35:14.429Z,94.15
2018-07-23T02:36:14.302Z,94.98
2018-07-23T02:38:07.101Z,93.34
2018-07-23T02:39:07.035Z,94.21
2018-07-23T02:40:59.812Z,93.19
2018-07-23T02:41:59.746Z,94.21
2018-07-23T02:43:52.536Z,93.05
2018-07-23T02:44:52.443Z,94.30
2018-07-23T02:46:45.270Z,93.34
2018-07-23T02:47:45.173Z,92.47
2018-07-23T02:49:37.969Z,93.15
2018-07-23T02:50:37.897Z,93.05
2018-07-23T02:52:30.735Z,93.05
2018-07-23T02:53:30.619Z,92.09
2018-07-23T02:55:23.400Z,93.05
2018-07-23T02:56:23.325Z,92.19
2018-07-23T02:58:16.101Z,92.96
2018-07-23T02:59:16.032Z,93.58
2018-07-23T03:01:08.796Z,93.00
2018-07-23T03:02:08.741Z,93.24
2018-07-23T03:04:01.527Z,93.48
2018-07-23T03:05:01.472Z,94.15
2018-07-23T03:06:54.266Z,93.48
2018-07-23T03:07:54.169Z,93.63
2018-07-23T03:09:46.973Z,93.44
2018-07-23T03:10:46.888Z,94.21
2018-07-23T03:12:39.694Z,94.49
2018-07-23T03:13:39.604Z,93.82
2018-07-23T03:15:32.396Z,94.15
2018-07-23T03:16:32.352Z,93.48
2018-07-23T03:18:25.103Z,93.96
2018-07-23T03:19:25.025Z,95.50
2018-07-23T03:21:17.813Z,95.02
2018-07-23T03:22:17.757Z,94.92
2018-07-23T03:24:10.533Z,96.08
2018-07-23T03:25:10.452Z,96.37
2018-07-23T03:27:03.219Z,96.37
2018-07-23T03:28:03.152Z,94.92
2018-07-23T03:29:55.937Z,96.27
2018-07-23T03:30:55.872Z,97.24
2018-07-23T03:32:48.645Z,96.56
2018-07-23T03:33:48.570Z,96.37
2018-07-23T03:35:41.344Z,97.04
2018-07-23T03:36:41.289Z,97.38
2018-07-23T03:38:34.073Z,96.22
2018-07-23T03:39:34.003Z,96.22
2018-07-23T03:41:26.768Z,96.61
2018-07-23T03:42:26.706Z,96.80
2018-07-23T03:44:19.518Z,98.44
2018-07-23T03:45:19.442Z,97.86
2018-07-23T03:47:12.241Z,98.34
2018-07-23T03:48:12.144Z,99.40
2018-07-23T03:50:04.925Z,99.99
2018-07-23T03:51:04.852Z,98.24
2018-07-23T03:52:57.638Z,98.63
2018-07-23T03:53:57.559Z,98.82
2018-07-23T03:55:50.342Z,98.44
2018-07-23T03:56:50.281Z,99.11
2018-07-23T03:58:43.060Z,98.44
2018-07-23T03:59:42.985Z,99.99
2018-07-23T04:01:35.765Z,98.92
2018-07-23T04:02:35.707Z,98.72
2018-07-23T04:04:28.488Z,99.99
2018-07-23T04:05:28.413Z,98.72
2018-07-23T04:07:21.237Z,99.49
2018-07-23T04:08:21.144Z,99.99
2018-07-23T04:10:13.927Z,98.72
2018-07-23T04:11:13.858Z,99.99
2018-07-23T04:13:06.647Z,98.14
2018-07-23T04:14:06.582Z,99.99
2018-07-23T04:15:59.368Z,99.99
2018-07-23T04:16:59.303Z,99.69
2018-07-23T04:18:52.109Z,98.92
2018-07-23T04:19:52.039Z,99.69
2018-07-23T04:21:44.828Z,98.72
2018-07-23T04:22:44.753Z,99.21
2018-07-23T04:24:37.554Z,99.59
2018-07-23T04:25:37.487Z,99.99
2018-07-23T04:27:30.332Z,99.99
2018-07-23T04:28:30.236Z,99.99
2018-07-23T04:30:23.063Z,99.99
2018-07-23T04:31:22.972Z,99.99
2018-07-23T04:33:15.780Z,99.49
2018-07-23T04:34:15.717Z,99.01
2018-07-23T04:36:08.464Z,99.99
2018-07-23T04:37:08.394Z,99.59
2018-07-23T04:39:01.177Z,99.99
2018-07-23T04:40:01.098Z,99.99
2018-07-23T04:41:53.884Z,99.99
2018-07-23T04:42:53.816Z,99.64
2018-07-23T04:44:46.613Z,99.99
2018-07-23T04:45:46.524Z,99.99
2018-07-23T04:47:39.297Z,99.99
2018-07-23T04:48:39.233Z,99.99
2018-07-23T04:50:32.054Z,99.99
2018-07-23T04:51:31.950Z,99.99
2018-07-23T04:53:24.754Z,99.99
2018-07-23T04:54:24.684Z,99.99
2018-07-23T04:56:17.484Z,99.99
2018-07-23T04:57:17.408Z,99.99
2018-07-23T04:59:10.197Z,99.99
2018-07-23T05:00:10.129Z,99.99
2018-07-23T05:02:02.943Z,99.99
2018-07-23T05:03:02.873Z,99.99
2018-07-23T05:04:55.920Z,99.99
2018-07-23T05:05:55.582Z,99.99
2018-07-23T05:07:48.379Z,99.99
2018-07-23T05:08:48.308Z,99.99
2018-07-23T05:10:41.107Z,99.99
2018-07-23T05:11:41.037Z,99.99
2018-07-23T05:13:33.825Z,99.99
2018-07-23T05:14:33.760Z,99.99
2018-07-23T05:16:26.563Z,99.99
2018-07-23T05:17:26.501Z,99.99
2018-07-23T05:19:19.276Z,98.54
2018-07-23T05:20:19.228Z,96.69
2018-07-23T05:22:11.970Z,95.48
2018-07-23T05:23:11.911Z,93.97
2018-07-23T05:25:04.709Z,91.10
2018-07-23T05:26:04.657Z,85.99
2018-07-23T05:27:57.446Z,86.28
2018-07-23T05:28:57.382Z,88.52
2018-07-23T05:30:50.194Z,85.64
2018-07-23T05:31:50.167Z,85.54
2018-07-23T05:33:42.949Z,83.25
2018-07-23T05:34:42.879Z,82.47
2018-07-23T05:36:35.654Z,82.18
2018-07-23T05:37:35.602Z,81.79
2018-07-23T05:39:28.400Z,81.20
2018-07-23T05:40:28.339Z,80.23
2018-07-23T05:42:21.146Z,79.79
2018-07-23T05:43:21.096Z,80.51
2018-07-23T05:45:13.922Z,77.29
2018-07-23T05:46:13.846Z,76.80
2018-07-23T05:48:06.629Z,76.39
2018-07-23T05:49:06.589Z,73.95
2018-07-23T05:50:59.426Z,75.12
2018-07-23T05:51:59.352Z,74.77
2018-07-23T05:53:52.161Z,74.15
2018-07-23T05:54:52.101Z,74.18
2018-07-23T05:56:44.905Z,72.72
2018-07-23T05:57:44.935Z,72.23
2018-07-23T05:59:37.671Z,73.89
2018-07-23T06:00:37.590Z,73.24
2018-07-23T06:02:30.386Z,71.19
2018-07-23T06:03:30.345Z,70.77
2018-07-23T06:05:23.154Z,69.99
2018-07-23T06:06:23.144Z,69.99
2018-07-23T06:08:15.936Z,68.65
2018-07-23T06:09:15.857Z,70.51
2018-07-23T06:11:08.667Z,66.24
2018-07-23T06:12:08.599Z,68.98
2018-07-23T06:14:01.433Z,66.53
2018-07-23T06:15:01.358Z,67.61
2018-07-23T06:16:54.145Z,70.02
2018-07-23T06:17:54.125Z,68.55
2018-07-23T06:19:46.943Z,70.18
2018-07-23T06:20:46.848Z,68.62
2018-07-23T06:22:39.648Z,69.21
2018-07-23T06:23:39.604Z,69.01
2018-07-23T06:25:32.429Z,69.40
2018-07-23T06:26:32.367Z,68.62
2018-07-23T06:28:25.185Z,68.71
2018-07-23T06:29:25.132Z,69.76
2018-07-23T06:31:17.990Z,69.85
2018-07-23T06:32:17.927Z,69.85
2018-07-23T06:34:10.817Z,68.75
2018-07-23T06:35:10.687Z,69.04
2018-07-23T06:37:03.500Z,66.96
2018-07-23T06:38:03.449Z,67.74
2018-07-23T06:39:56.270Z,70.15
2018-07-23T06:40:56.208Z,70.02
2018-07-23T06:42:49.028Z,69.08
2018-07-23T06:43:48.968Z,67.71
2018-07-23T06:45:41.822Z,66.11
2018-07-23T06:46:41.814Z,66.30
2018-07-23T06:48:34.528Z,64.25
2018-07-23T06:49:34.480Z,65.88
2018-07-23T06:51:27.330Z,65.91
2018-07-23T06:52:27.260Z,63.95
2018-07-23T06:54:20.092Z,64.41
2018-07-23T06:55:20.035Z,64.90
2018-07-23T06:57:12.829Z,65.13
2018-07-23T06:58:12.817Z,63.07
2018-07-23T07:00:05.609Z,62.61
2018-07-23T07:01:05.568Z,63.07
2018-07-23T07:02:58.382Z,64.54
2018-07-23T07:03:58.327Z,64.84
2018-07-23T07:05:51.159Z,63.07
2018-07-23T07:06:51.097Z,63.17
2018-07-23T07:08:44.531Z,63.07
2018-07-23T07:09:44.481Z,63.07
2018-07-23T07:11:37.288Z,63.34
2018-07-23T07:12:37.226Z,64.54
2018-07-23T07:14:30.068Z,62.78
2018-07-23T07:15:30.003Z,62.38
2018-07-23T07:17:22.836Z,62.19
2018-07-23T07:18:22.792Z,62.78
2018-07-23T07:20:15.637Z,61.80
2018-07-23T07:21:15.554Z,61.31
2018-07-23T07:23:08.449Z,61.99
2018-07-23T07:24:08.427Z,60.65
2018-07-23T07:26:01.760Z,60.06
2018-07-23T07:27:01.703Z,60.68
2018-07-23T07:28:54.511Z,60.19
2018-07-23T07:29:54.497Z,59.90
2018-07-23T07:31:47.304Z,59.77
2018-07-23T07:32:47.249Z,60.16
2018-07-23T07:34:40.097Z,59.08
2018-07-23T07:35:40.032Z,60.46
2018-07-23T07:37:32.840Z,59.61
2018-07-23T07:38:32.805Z,59.11
2018-07-23T07:40:25.631Z,58.97
2018-07-23T07:41:25.623Z,58.58
2018-07-23T07:43:18.397Z,57.50
2018-07-23T07:44:18.353Z,58.87
2018-07-23T07:46:11.204Z,56.55
2018-07-23T07:47:11.109Z,55.15
2018-07-23T07:49:03.935Z,57.64
2018-07-23T07:50:03.892Z,58.98
2018-07-23T07:51:56.741Z,60.06
2018-07-23T07:52:56.666Z,60.36
2018-07-23T07:54:49.503Z,59.70
2018-07-23T07:55:49.458Z,58.96
2018-07-23T07:57:42.299Z,59.42
2018-07-23T07:58:42.259Z,60.30
2018-07-23T08:00:35.070Z,60.89
2018-07-23T08:01:35.016Z,60.03
2018-07-23T08:03:27.820Z,59.35
2018-07-23T08:04:27.792Z,59.74
2018-07-23T08:06:20.602Z,60.36
2018-07-23T08:07:20.550Z,59.77
2018-07-23T08:09:13.358Z,59.16
2018-07-23T08:10:13.327Z,58.86
2018-07-23T08:12:06.147Z,56.97
2018-07-23T08:13:06.092Z,59.25
2018-07-23T08:14:58.903Z,58.47
2018-07-23T08:15:58.926Z,57.29
2018-07-23T08:17:51.754Z,58.17
2018-07-23T08:18:51.638Z,58.25
2018-07-23T08:20:44.522Z,57.92
2018-07-23T08:21:44.456Z,58.83
2018-07-23T08:23:37.301Z,57.49
2018-07-23T08:24:37.250Z,59.06
2018-07-23T08:26:30.074Z,55.73
2018-07-23T08:27:30.020Z,55.73
2018-07-23T08:29:22.849Z,59.22
2018-07-23T08:30:22.811Z,56.19
2018-07-23T08:32:15.678Z,57.04
2018-07-23T08:33:15.548Z,58.05
2018-07-23T08:35:08.374Z,55.95
2018-07-23T08:36:08.328Z,55.63
2018-07-23T08:38:01.170Z,57.29
2018-07-23T08:39:01.116Z,57.07
2018-07-23T08:40:53.978Z,57.10
2018-07-23T08:41:53.893Z,57.52
2018-07-23T08:43:46.711Z,56.93
2018-07-23T08:44:46.672Z,56.83
2018-07-23T08:46:39.490Z,55.56
2018-07-23T08:47:39.427Z,55.95
2018-07-23T08:49:32.258Z,54.68
2018-07-23T08:50:32.211Z,55.07
2018-07-23T08:52:25.040Z,55.49
2018-07-23T08:53:24.984Z,55.19
2018-07-23T08:55:17.795Z,55.36
2018-07-23T08:56:17.757Z,55.68
2018-07-23T08:58:10.579Z,55.43
2018-07-23T08:59:10.523Z,55.07
2018-07-23T09:01:03.359Z,53.57
2018-07-23T09:02:03.311Z,54.97
2018-07-23T09:03:56.159Z,55.36
2018-07-23T09:04:56.135Z,54.50
2018-07-23T09:06:48.944Z,53.92
2018-07-23T09:07:48.873Z,54.09
2018-07-23T09:09:41.688Z,54.21
2018-07-23T09:10:41.638Z,54.41
2018-07-23T09:12:34.510Z,53.92
2018-07-23T09:13:34.423Z,52.45
2018-07-23T09:15:27.274Z,52.06
2018-07-23T09:16:27.192Z,52.45
2018-07-23T09:18:20.042Z,54.73
2018-07-23T09:19:20.131Z,52.86
2018-07-23T09:21:12.815Z,51.56
2018-07-23T09:22:12.802Z,52.62
2018-07-23T09:24:05.616Z,53.86
2018-07-23T09:25:05.579Z,54.16
2018-07-23T09:26:58.372Z,55.14
2018-07-23T09:27:58.367Z,55.14
2018-07-23T09:29:51.141Z,54.89
2018-07-23T09:30:51.144Z,54.91
2018-07-23T09:32:43.943Z,52.59
2018-07-23T09:33:43.884Z,55.14
2018-07-23T09:35:36.704Z,53.01
2018-07-23T09:36:36.653Z,53.50
2018-07-23T09:38:29.532Z,53.01
2018-07-23T09:39:29.477Z,53.20
2018-07-23T09:41:22.346Z,53.63
2018-07-23T09:42:22.305Z,52.55
2018-07-23T09:44:15.110Z,53.85
2018-07-23T09:45:15.062Z,52.84
2018-07-23T09:47:07.936Z,53.86
2018-07-23T09:48:07.894Z,54.36
2018-07-23T09:50:00.701Z,54.87
2018-07-23T09:51:00.653Z,53.82
2018-07-23T09:52:53.498Z,53.82
2018-07-23T09:53:53.424Z,55.16
2018-07-23T09:55:46.261Z,53.99
2018-07-23T09:56:46.205Z,55.85
2018-07-23T09:58:39.047Z,55.16
2018-07-23T09:59:38.990Z,56.73
2018-07-23T10:01:31.798Z,54.25
2018-07-23T10:02:31.765Z,54.91
2018-07-23T10:04:24.553Z,55.80
2018-07-23T10:05:24.509Z,57.07
2018-07-23T10:07:17.323Z,57.17
2018-07-23T10:08:17.261Z,56.71
2018-07-23T10:10:10.066Z,57.43
2018-07-23T10:11:10.024Z,57.46
2018-07-23T10:13:02.849Z,57.59
2018-07-23T10:14:02.791Z,57.56
2018-07-23T10:15:55.606Z,56.16
2018-07-23T10:16:55.584Z,57.53
2018-07-23T10:18:48.383Z,58.67
2018-07-23T10:19:48.339Z,56.31
2018-07-23T10:21:41.165Z,58.05
2018-07-23T10:22:41.119Z,57.24
2018-07-23T10:24:33.917Z,56.85
2018-07-23T10:25:33.873Z,58.73
2018-07-23T10:27:26.749Z,57.07
2018-07-23T10:28:26.630Z,57.39
2018-07-23T10:30:19.444Z,56.41
2018-07-23T10:31:19.390Z,55.82
2018-07-23T10:33:12.236Z,54.36
2018-07-23T10:34:12.174Z,56.41
2018-07-23T10:36:04.982Z,55.14
2018-07-23T10:37:04.940Z,55.14
2018-07-23T10:38:57.754Z,53.28
2018-07-23T10:39:57.729Z,54.06
2018-07-23T10:41:50.531Z,54.82
2018-07-23T10:42:50.467Z,54.82
2018-07-23T10:44:43.352Z,56.26
2018-07-23T10:45:43.302Z,53.62
2018-07-23T10:47:36.147Z,56.85
2018-07-23T10:48:36.083Z,55.96
2018-07-23T10:50:28.901Z,55.57
2018-07-23T10:51:28.965Z,55.90
2018-07-23T10:53:21.718Z,56.65
2018-07-23T10:54:21.652Z,56.65
2018-07-23T10:56:14.488Z,56.16
2018-07-23T10:57:14.463Z,53.81
2018-07-23T10:59:07.283Z,54.96
2018-07-23T11:00:07.215Z,55.06
2018-07-23T11:02:00.029Z,57.14
2018-07-23T11:02:59.965Z,56.56
2018-07-23T11:04:52.797Z,57.31
2018-07-23T11:05:52.744Z,55.84
2018-07-23T11:07:45.560Z,57.04
2018-07-23T11:08:45.499Z,56.16
2018-07-23T11:10:38.449Z,57.34
2018-07-23T11:11:38.269Z,55.08
2018-07-23T11:13:31.160Z,56.23
2018-07-23T11:14:31.053Z,57.48
2018-07-23T11:16:23.859Z,57.06
2018-07-23T11:17:23.817Z,57.35
2018-07-23T11:19:16.737Z,57.48
2018-07-23T11:20:16.621Z,57.28
2018-07-23T11:22:09.442Z,56.84
2018-07-23T11:23:09.370Z,57.91
2018-07-23T11:25:38.219Z,58.65
2018-07-23T11:26:02.151Z,58.72
2018-07-23T11:27:54.961Z,58.06
2018-07-23T11:28:54.913Z,56.70
2018-07-23T11:30:47.740Z,58.33
2018-07-23T11:31:47.687Z,57.35
2018-07-23T11:33:40.506Z,56.37
2018-07-23T11:34:40.446Z,57.71
2018-07-23T11:36:33.275Z,58.11
2018-07-23T11:37:33.200Z,57.91
2018-07-23T11:39:26.039Z,58.91
2018-07-23T11:40:26.000Z,60.16
2018-07-23T11:42:18.833Z,59.28
2018-07-23T11:43:18.804Z,59.99
2018-07-23T11:45:11.595Z,59.69
2018-07-23T11:46:24.426Z,60.16
2018-07-23T11:48:04.365Z,59.79
2018-07-23T11:49:04.266Z,59.08
2018-07-23T11:50:57.074Z,58.30
2018-07-23T11:51:57.040Z,61.40
2018-07-23T11:53:49.832Z,60.97
2018-07-23T11:54:49.774Z,61.95
2018-07-23T11:56:42.571Z,62.76
2018-07-23T11:57:42.543Z,61.89
2018-07-23T11:59:35.336Z,64.10
2018-07-23T12:00:35.298Z,63.97
2018-07-23T12:02:28.094Z,64.36
2018-07-23T12:03:28.074Z,64.91
2018-07-23T12:05:20.862Z,65.50
2018-07-23T12:06:20.803Z,64.42
2018-07-23T12:08:13.708Z,65.20
2018-07-23T12:09:13.551Z,65.79
2018-07-23T12:11:06.371Z,64.98
2018-07-23T12:12:06.303Z,64.59
2018-07-23T12:13:59.119Z,66.66
2018-07-23T12:14:59.046Z,67.05
2018-07-23T12:16:51.939Z,66.83
2018-07-23T12:17:51.827Z,67.31
2018-07-23T12:19:44.651Z,65.56
2018-07-23T12:20:44.559Z,66.83
2018-07-23T12:22:37.397Z,67.60
2018-07-23T12:23:37.312Z,67.41
2018-07-23T12:25:30.152Z,67.60
2018-07-23T12:26:30.124Z,68.48
2018-07-23T12:28:22.911Z,69.00
2018-07-23T12:29:22.848Z,67.90
2018-07-23T12:31:15.638Z,65.30
2018-07-23T12:32:15.577Z,66.14
2018-07-23T12:34:08.543Z,65.56
2018-07-23T12:35:08.340Z,66.73
2018-07-23T12:37:01.107Z,66.34
2018-07-23T12:38:01.040Z,65.37
2018-07-23T12:39:54.009Z,66.93
2018-07-23T12:40:53.907Z,65.17
2018-07-23T12:42:46.702Z,68.09
2018-07-23T12:43:46.637Z,67.99
2018-07-23T12:45:39.431Z,67.90
2018-07-23T12:46:39.374Z,68.19
2018-07-23T12:48:32.171Z,67.50
2018-07-23T12:49:32.118Z,68.67
2018-07-23T12:51:24.924Z,68.29
2018-07-23T12:52:24.878Z,67.31
2018-07-23T12:54:17.675Z,68.57
2018-07-23T12:55:17.594Z,69.06
2018-07-23T12:57:10.384Z,66.63
2018-07-23T12:58:10.335Z,66.83
2018-07-23T13:00:03.245Z,66.79
2018-07-23T13:01:03.091Z,66.11
2018-07-23T13:02:56.003Z,65.75
2018-07-23T13:03:55.974Z,67.02
2018-07-23T13:05:48.870Z,66.69
2018-07-23T13:06:48.769Z,65.46
2018-07-23T13:08:41.593Z,64.75
2018-07-23T13:09:41.498Z,63.78
2018-07-23T13:11:34.299Z,66.50
2018-07-23T13:12:34.232Z,67.57
2018-07-23T13:14:27.061Z,67.50
2018-07-23T13:15:26.984Z,65.82
2018-07-23T13:17:19.794Z,66.31
2018-07-23T13:18:19.809Z,65.72
2018-07-23T13:20:12.577Z,66.60
2018-07-23T13:21:12.477Z,66.89
2018-07-23T13:23:05.326Z,68.25
2018-07-23T13:24:05.247Z,67.08
2018-07-23T13:25:58.079Z,65.33
2018-07-23T13:26:58.021Z,65.72
2018-07-23T13:28:50.839Z,65.33
2018-07-23T13:29:50.801Z,66.60
2018-07-23T13:31:43.580Z,64.07
2018-07-23T13:32:43.530Z,65.92
2018-07-23T13:34:36.398Z,64.56
2018-07-23T13:35:36.294Z,64.56
2018-07-23T13:37:29.084Z,64.95
2018-07-23T13:38:29.029Z,64.46
2018-07-23T13:40:21.873Z,64.65
2018-07-23T13:41:21.782Z,65.23
2018-07-23T13:43:14.589Z,65.14
2018-07-23T13:44:14.521Z,62.32
2018-07-23T13:46:07.348Z,62.71
2018-07-23T13:47:07.272Z,62.71
2018-07-23T13:49:00.067Z,64.85
2018-07-23T13:50:00.009Z,64.46
2018-07-23T13:51:52.887Z,64.56
2018-07-23T13:52:52.750Z,64.17
2018-07-23T13:54:45.549Z,66.11
2018-07-23T13:55:45.489Z,64.75
2018-07-23T13:57:38.288Z,65.04
2018-07-23T13:58:38.231Z,64.85
2018-07-23T14:00:31.058Z,61.64
2018-07-23T14:01:30.976Z,62.23
2018-07-23T14:03:23.781Z,62.90
2018-07-23T14:04:23.743Z,62.32
2018-07-23T14:06:16.559Z,64.17
2018-07-23T14:07:16.454Z,64.85
2018-07-23T14:09:09.241Z,65.72
2018-07-23T14:10:09.171Z,64.17
2018-07-23T14:12:01.991Z,61.35
2018-07-23T14:13:01.922Z,62.41
2018-07-23T14:14:54.729Z,63.59
2018-07-23T14:15:54.669Z,65.04
2018-07-23T14:17:47.442Z,65.33
2018-07-23T14:18:47.391Z,64.46
2018-07-23T14:20:40.185Z,64.26
2018-07-23T14:21:40.118Z,65.53
2018-07-23T14:23:32.929Z,64.46
2018-07-23T14:24:32.874Z,64.85
2018-07-23T14:26:25.666Z,64.36
2018-07-23T14:27:25.595Z,62.90
2018-07-23T14:29:18.394Z,65.43
2018-07-23T14:30:18.398Z,65.53
2018-07-23T14:32:11.114Z,66.40
2018-07-23T14:33:11.083Z,65.53
2018-07-23T14:35:03.862Z,64.85
2018-07-23T14:36:03.794Z,63.39
2018-07-23T14:37:56.682Z,64.85
2018-07-23T14:38:56.537Z,65.43
2018-07-23T14:40:49.331Z,66.11
2018-07-23T14:41:49.268Z,65.72
2018-07-23T14:43:42.049Z,65.23
2018-07-23T14:44:41.990Z,65.14
2018-07-23T14:46:34.835Z,64.75
2018-07-23T14:47:34.770Z,64.85
2018-07-23T14:49:27.655Z,65.53
2018-07-23T14:50:27.527Z,65.53
2018-07-23T14:52:20.328Z,65.14
2018-07-23T14:53:20.263Z,64.95
2018-07-23T14:55:13.072Z,64.26
2018-07-23T14:56:13.004Z,64.65
2018-07-23T14:58:05.833Z,64.07
2018-07-23T14:59:05.764Z,62.71
2018-07-23T15:00:58.578Z,63.68
2018-07-23T15:01:58.505Z,63.97
2018-07-23T15:03:51.321Z,63.59
2018-07-23T15:04:51.345Z,64.36
2018-07-23T15:06:44.076Z,65.56
2018-07-23T15:07:44.002Z,65.63
2018-07-23T15:09:36.787Z,66.11
2018-07-23T15:10:36.715Z,66.02
2018-07-23T15:12:29.553Z,66.40
2018-07-23T15:13:29.479Z,67.57
2018-07-23T15:15:22.296Z,66.11
2018-07-23T15:16:22.222Z,64.46
2018-07-23T15:18:15.029Z,63.49
2018-07-23T15:19:14.931Z,65.43
2018-07-23T15:21:07.740Z,66.40
2018-07-23T15:22:07.712Z,66.89
2018-07-23T15:24:00.536Z,66.11
2018-07-23T15:25:00.477Z,65.63
2018-07-23T15:26:53.328Z,65.04
2018-07-23T15:27:53.253Z,65.14
2018-07-23T15:29:46.052Z,63.59
2018-07-23T15:30:45.997Z,65.53
2018-07-23T15:32:38.944Z,63.59
2018-07-23T15:33:38.698Z,64.75
2018-07-23T15:35:31.530Z,66.31
2018-07-23T15:36:31.451Z,64.85
2018-07-23T15:38:24.293Z,66.31
2018-07-23T15:39:24.188Z,66.69
2018-07-23T15:41:17.087Z,68.25
2018-07-23T15:42:16.938Z,66.11
2018-07-23T15:44:09.800Z,66.40
2018-07-23T15:45:09.790Z,66.40
2018-07-23T15:47:02.552Z,67.38
2018-07-23T15:48:02.546Z,66.79
2018-07-23T15:49:55.275Z,69.13
2018-07-23T15:50:55.289Z,68.74
2018-07-23T15:52:47.971Z,67.67
2018-07-23T15:53:47.901Z,67.28
2018-07-23T15:55:40.712Z,66.40
2018-07-23T15:56:40.691Z,65.53
2018-07-23T15:58:33.526Z,68.15
2018-07-23T15:59:33.466Z,66.60
2018-07-23T16:01:26.274Z,67.38
2018-07-23T16:02:26.185Z,66.21
2018-07-23T16:04:18.954Z,67.38
2018-07-23T16:05:18.934Z,68.12
2018-07-23T16:07:11.693Z,66.66
2018-07-23T16:08:11.621Z,66.66
2018-07-23T16:10:04.472Z,67.76
2018-07-23T16:11:04.377Z,68.41
2018-07-23T16:12:57.163Z,65.01
2018-07-23T16:13:57.107Z,68.15
2018-07-23T16:15:49.919Z,69.32
2018-07-23T16:16:49.853Z,68.90
2018-07-23T16:18:42.652Z,66.79
2018-07-23T16:19:42.652Z,68.99
2018-07-23T16:21:35.376Z,67.93
2018-07-23T16:22:35.346Z,68.90
2018-07-23T16:24:28.135Z,68.41
2018-07-23T16:25:28.057Z,69.38
2018-07-23T16:27:20.910Z,68.41
2018-07-23T16:28:20.862Z,66.56
2018-07-23T16:30:13.627Z,66.89
2018-07-23T16:31:13.580Z,68.02
2018-07-23T16:33:06.366Z,66.47
2018-07-23T16:34:06.302Z,68.12
2018-07-23T16:35:59.095Z,69.48
2018-07-23T16:36:59.018Z,69.48
2018-07-23T16:38:51.884Z,66.27
2018-07-23T16:39:51.782Z,68.70
2018-07-23T16:41:44.559Z,68.02
2018-07-23T16:42:44.493Z,66.76
2018-07-23T16:44:37.387Z,68.60
2018-07-23T16:45:37.308Z,67.05
2018-07-23T16:47:30.076Z,66.17
2018-07-23T16:48:30.059Z,66.86
2018-07-23T16:50:22.830Z,66.76
2018-07-23T16:51:22.766Z,68.41
2018-07-23T16:53:15.563Z,67.93
2018-07-23T16:54:15.618Z,66.96
2018-07-23T16:56:08.288Z,68.60
2018-07-23T16:57:08.214Z,67.34
2018-07-23T16:59:01.026Z,67.05
2018-07-23T17:00:01.035Z,68.02
2018-07-23T17:01:53.786Z,67.93
2018-07-23T17:02:53.710Z,69.87
2018-07-23T17:04:46.481Z,68.41
2018-07-23T17:05:46.443Z,69.48
2018-07-23T17:07:39.220Z,68.41
2018-07-23T17:08:39.157Z,69.96
2018-07-23T17:10:31.930Z,70.36
2018-07-23T17:11:31.869Z,66.82
2018-07-23T17:13:24.683Z,69.38
2018-07-23T17:14:24.609Z,69.15
2018-07-23T17:16:17.436Z,68.60
2018-07-23T17:17:17.345Z,66.76
2018-07-23T17:19:10.220Z,69.67
2018-07-23T17:20:10.077Z,68.02
2018-07-23T17:22:02.904Z,67.28
2018-07-23T17:23:02.841Z,67.47
2018-07-23T17:24:55.618Z,66.79
2018-07-23T17:25:55.573Z,66.37
2018-07-23T17:27:48.361Z,66.66
2018-07-23T17:28:48.287Z,68.70
2018-07-23T17:30:41.429Z,69.19
2018-07-23T17:31:41.027Z,69.25
2018-07-23T17:33:33.857Z,67.70
2018-07-23T17:34:33.819Z,69.35
2018-07-23T17:36:26.681Z,67.11
2018-07-23T17:37:26.543Z,70.12
2018-07-23T17:39:19.332Z,69.41
2018-07-23T17:40:19.262Z,70.29
2018-07-23T17:42:12.345Z,69.74
2018-07-23T17:43:11.998Z,70.48
2018-07-23T17:45:04.801Z,70.39
2018-07-23T17:46:04.742Z,70.48
2018-07-23T17:47:57.525Z,70.67
2018-07-23T17:48:57.437Z,70.48
2018-07-23T17:50:50.239Z,71.16
2018-07-23T17:51:50.179Z,72.52
2018-07-23T17:53:43.055Z,70.97
2018-07-23T17:54:43.004Z,71.64
2018-07-23T17:56:35.766Z,70.67
2018-07-23T17:57:35.707Z,69.86
2018-07-23T17:59:28.499Z,71.80
2018-07-23T18:00:28.455Z,70.06
2018-07-23T18:02:21.310Z,73.74
2018-07-23T18:03:21.178Z,74.52
2018-07-23T18:05:13.988Z,72.19
2018-07-23T18:06:13.944Z,73.07
2018-07-23T18:08:06.734Z,73.07
2018-07-23T18:09:06.649Z,74.43
2018-07-23T18:10:59.499Z,73.03
2018-07-23T18:11:59.457Z,75.65
2018-07-23T18:13:52.241Z,73.42
2018-07-23T18:14:52.177Z,74.77
2018-07-23T18:16:45.079Z,75.26
2018-07-23T18:17:45.045Z,75.45
2018-07-23T18:19:37.797Z,75.03
2018-07-23T18:20:37.764Z,75.51
2018-07-23T18:22:30.537Z,75.03
2018-07-23T18:23:30.457Z,73.67
2018-07-23T18:25:23.249Z,72.51
2018-07-23T18:26:23.225Z,71.64
2018-07-23T18:28:15.987Z,75.61
2018-07-23T18:29:15.913Z,75.61
2018-07-23T18:31:08.753Z,74.74
2018-07-23T18:32:08.666Z,73.67